sensor_id;sensor_type;location;lat;lon;timestamp;P1;durP1;ratioP1;P2;durP2;ratioP2
53253;SDS011;75200;53.048;7.552;2024-01-16T00:02:03;5.28;;;0.90;;
53253;SDS011;75200;53.048;7.552;2024-01-16T00:04:29;9.00;;;1.30;;
53253;SDS011;75200;53.048;7.552;2024-01-16T00:06:56;9.30;;;1.35;;
53253;SDS011;75200;53.048;7.552;2024-01-16T00:09:22;6.97;;;1.15;;
53253;SDS011;75200;53.048;7.552;2024-01-16T00:11:48;6.05;;;1.08;;
53253;SDS011;75200;53.048;7.552;2024-01-16T00:14:14;7.63;;;1.25;;
53253;SDS011;75200;53.048;7.552;2024-01-16T00:16:47;7.80;;;1.20;;
53253;SDS011;75200;53.048;7.552;2024-01-16T00:19:13;4.03;;;0.60;;
53253;SDS011;75200;53.048;7.552;2024-01-16T00:21:40;2.08;;;0.60;;
53253;SDS011;75200;53.048;7.552;2024-01-16T00:24:06;4.85;;;0.77;;
53253;SDS011;75200;53.048;7.552;2024-01-16T00:26:32;4.75;;;0.80;;
53253;SDS011;75200;53.048;7.552;2024-01-16T00:28:58;6.75;;;1.20;;
53253;SDS011;75200;53.048;7.552;2024-01-16T00:31:26;5.00;;;0.50;;
53253;SDS011;75200;53.048;7.552;2024-01-16T00:33:52;3.65;;;0.90;;
53253;SDS011;75200;53.048;7.552;2024-01-16T00:36:18;6.80;;;1.20;;
53253;SDS011;75200;53.048;7.552;2024-01-16T00:38:44;6.88;;;1.15;;
53253;SDS011;75200;53.048;7.552;2024-01-16T00:41:11;5.38;;;0.90;;
53253;SDS011;75200;53.048;7.552;2024-01-16T00:43:40;1.92;;;0.73;;
53253;SDS011;75200;53.048;7.552;2024-01-16T00:46:06;8.05;;;1.30;;
53253;SDS011;75200;53.048;7.552;2024-01-16T00:48:32;7.70;;;1.13;;
53253;SDS011;75200;53.048;7.552;2024-01-16T00:50:58;6.22;;;0.98;;
53253;SDS011;75200;53.048;7.552;2024-01-16T00:53:25;5.47;;;0.80;;
53253;SDS011;75200;53.048;7.552;2024-01-16T00:55:52;6.30;;;0.70;;
53253;SDS011;75200;53.048;7.552;2024-01-16T00:58:19;8.50;;;0.90;;
53253;SDS011;75200;53.048;7.552;2024-01-16T01:00:45;4.28;;;0.90;;
53253;SDS011;75200;53.048;7.552;2024-01-16T01:03:11;7.53;;;1.33;;
53253;SDS011;75200;53.048;7.552;2024-01-16T01:05:38;6.82;;;1.02;;
53253;SDS011;75200;53.048;7.552;2024-01-16T01:08:04;10.77;;;1.20;;
53253;SDS011;75200;53.048;7.552;2024-01-16T01:10:30;7.60;;;1.23;;
53253;SDS011;75200;53.048;7.552;2024-01-16T01:12:56;4.25;;;0.68;;
53253;SDS011;75200;53.048;7.552;2024-01-16T01:15:22;8.73;;;0.93;;
53253;SDS011;75200;53.048;7.552;2024-01-16T01:17:49;8.02;;;1.00;;
53253;SDS011;75200;53.048;7.552;2024-01-16T01:20:15;4.75;;;0.43;;
53253;SDS011;75200;53.048;7.552;2024-01-16T01:22:41;9.40;;;1.05;;
53253;SDS011;75200;53.048;7.552;2024-01-16T01:25:07;9.43;;;0.82;;
53253;SDS011;75200;53.048;7.552;2024-01-16T01:27:33;8.77;;;1.10;;
53253;SDS011;75200;53.048;7.552;2024-01-16T01:30:00;7.97;;;1.10;;
53253;SDS011;75200;53.048;7.552;2024-01-16T01:32:26;9.57;;;0.75;;
53253;SDS011;75200;53.048;7.552;2024-01-16T01:34:52;2.25;;;0.47;;
53253;SDS011;75200;53.048;7.552;2024-01-16T01:37:18;6.55;;;0.68;;
53253;SDS011;75200;53.048;7.552;2024-01-16T01:39:44;8.57;;;1.13;;
53253;SDS011;75200;53.048;7.552;2024-01-16T01:42:10;8.23;;;0.82;;
53253;SDS011;75200;53.048;7.552;2024-01-16T01:44:37;5.00;;;0.73;;
53253;SDS011;75200;53.048;7.552;2024-01-16T01:47:03;9.73;;;1.20;;
53253;SDS011;75200;53.048;7.552;2024-01-16T01:49:30;9.07;;;0.88;;
53253;SDS011;75200;53.048;7.552;2024-01-16T01:51:57;12.60;;;1.27;;
53253;SDS011;75200;53.048;7.552;2024-01-16T01:54:23;8.10;;;1.20;;
53253;SDS011;75200;53.048;7.552;2024-01-16T01:56:50;10.80;;;0.95;;
53253;SDS011;75200;53.048;7.552;2024-01-16T01:59:19;6.10;;;0.75;;
53253;SDS011;75200;53.048;7.552;2024-01-16T02:01:46;10.80;;;1.13;;
53253;SDS011;75200;53.048;7.552;2024-01-16T02:04:14;7.70;;;1.05;;
53253;SDS011;75200;53.048;7.552;2024-01-16T02:06:43;6.22;;;0.90;;
53253;SDS011;75200;53.048;7.552;2024-01-16T02:09:10;10.30;;;1.40;;
53253;SDS011;75200;53.048;7.552;2024-01-16T02:11:40;6.18;;;0.80;;
53253;SDS011;75200;53.048;7.552;2024-01-16T02:14:06;9.07;;;0.85;;
53253;SDS011;75200;53.048;7.552;2024-01-16T02:16:39;8.98;;;1.15;;
53253;SDS011;75200;53.048;7.552;2024-01-16T02:19:06;5.70;;;0.90;;
53253;SDS011;75200;53.048;7.552;2024-01-16T02:24:01;7.47;;;0.68;;
53253;SDS011;75200;53.048;7.552;2024-01-16T02:26:28;9.07;;;0.90;;
53253;SDS011;75200;53.048;7.552;2024-01-16T02:28:55;11.85;;;1.20;;
53253;SDS011;75200;53.048;7.552;2024-01-16T02:31:21;6.90;;;0.90;;
53253;SDS011;75200;53.048;7.552;2024-01-16T02:33:47;7.00;;;0.90;;
53253;SDS011;75200;53.048;7.552;2024-01-16T02:36:14;12.23;;;1.20;;
53253;SDS011;75200;53.048;7.552;2024-01-16T02:38:40;17.67;;;1.15;;
53253;SDS011;75200;53.048;7.552;2024-01-16T02:41:07;10.73;;;1.10;;
53253;SDS011;75200;53.048;7.552;2024-01-16T02:43:33;4.15;;;0.77;;
53253;SDS011;75200;53.048;7.552;2024-01-16T02:45:59;8.18;;;0.95;;
53253;SDS011;75200;53.048;7.552;2024-01-16T02:48:25;9.40;;;0.90;;
53253;SDS011;75200;53.048;7.552;2024-01-16T02:50:51;15.93;;;1.80;;
53253;SDS011;75200;53.048;7.552;2024-01-16T02:53:17;4.38;;;0.88;;
53253;SDS011;75200;53.048;7.552;2024-01-16T02:55:43;8.93;;;1.30;;
53253;SDS011;75200;53.048;7.552;2024-01-16T02:58:09;15.10;;;1.25;;
53253;SDS011;75200;53.048;7.552;2024-01-16T03:00:36;8.77;;;0.95;;
53253;SDS011;75200;53.048;7.552;2024-01-16T03:03:02;13.70;;;1.83;;
53253;SDS011;75200;53.048;7.552;2024-01-16T03:05:28;11.43;;;0.80;;
53253;SDS011;75200;53.048;7.552;2024-01-16T03:07:54;9.40;;;1.08;;
53253;SDS011;75200;53.048;7.552;2024-01-16T03:10:20;4.88;;;0.75;;
53253;SDS011;75200;53.048;7.552;2024-01-16T03:12:46;4.75;;;0.57;;
53253;SDS011;75200;53.048;7.552;2024-01-16T03:15:13;13.85;;;1.15;;
53253;SDS011;75200;53.048;7.552;2024-01-16T03:17:39;5.93;;;0.70;;
53253;SDS011;75200;53.048;7.552;2024-01-16T03:20:06;9.38;;;1.00;;
53253;SDS011;75200;53.048;7.552;2024-01-16T03:22:34;9.63;;;0.70;;
53253;SDS011;75200;53.048;7.552;2024-01-16T03:25:00;13.93;;;1.48;;
53253;SDS011;75200;53.048;7.552;2024-01-16T03:27:27;10.18;;;1.17;;
53253;SDS011;75200;53.048;7.552;2024-01-16T03:29:53;10.38;;;1.25;;
53253;SDS011;75200;53.048;7.552;2024-01-16T03:32:21;9.50;;;0.85;;
53253;SDS011;75200;53.048;7.552;2024-01-16T03:34:47;9.57;;;0.88;;
53253;SDS011;75200;53.048;7.552;2024-01-16T03:37:13;7.53;;;0.80;;
53253;SDS011;75200;53.048;7.552;2024-01-16T03:39:39;6.55;;;1.13;;
53253;SDS011;75200;53.048;7.552;2024-01-16T03:42:06;9.65;;;1.85;;
53253;SDS011;75200;53.048;7.552;2024-01-16T03:44:32;5.60;;;1.00;;
53253;SDS011;75200;53.048;7.552;2024-01-16T03:46:58;13.50;;;1.08;;
53253;SDS011;75200;53.048;7.552;2024-01-16T03:49:24;8.00;;;0.75;;
53253;SDS011;75200;53.048;7.552;2024-01-16T03:51:50;7.15;;;0.70;;
53253;SDS011;75200;53.048;7.552;2024-01-16T03:54:17;11.65;;;1.00;;
53253;SDS011;75200;53.048;7.552;2024-01-16T03:56:43;9.48;;;1.13;;
53253;SDS011;75200;53.048;7.552;2024-01-16T03:59:09;9.50;;;1.08;;
53253;SDS011;75200;53.048;7.552;2024-01-16T04:01:35;8.98;;;1.05;;
53253;SDS011;75200;53.048;7.552;2024-01-16T04:04:04;6.63;;;1.10;;
53253;SDS011;75200;53.048;7.552;2024-01-16T04:06:31;7.78;;;0.70;;
53253;SDS011;75200;53.048;7.552;2024-01-16T04:08:58;9.40;;;0.50;;
53253;SDS011;75200;53.048;7.552;2024-01-16T04:11:24;8.32;;;1.00;;
53253;SDS011;75200;53.048;7.552;2024-01-16T04:13:50;8.55;;;0.65;;
53253;SDS011;75200;53.048;7.552;2024-01-16T04:16:16;5.50;;;0.55;;
53253;SDS011;75200;53.048;7.552;2024-01-16T04:18:43;5.03;;;0.82;;
53253;SDS011;75200;53.048;7.552;2024-01-16T04:21:09;7.57;;;0.75;;
53253;SDS011;75200;53.048;7.552;2024-01-16T04:23:36;6.97;;;0.70;;
53253;SDS011;75200;53.048;7.552;2024-01-16T04:26:02;6.72;;;1.08;;
53253;SDS011;75200;53.048;7.552;2024-01-16T04:28:28;6.00;;;0.68;;
53253;SDS011;75200;53.048;7.552;2024-01-16T04:30:54;12.93;;;1.05;;
53253;SDS011;75200;53.048;7.552;2024-01-16T04:33:21;7.38;;;0.80;;
53253;SDS011;75200;53.048;7.552;2024-01-16T04:35:47;4.78;;;0.77;;
53253;SDS011;75200;53.048;7.552;2024-01-16T04:38:13;8.27;;;0.80;;
53253;SDS011;75200;53.048;7.552;2024-01-16T04:40:40;7.38;;;1.05;;
53253;SDS011;75200;53.048;7.552;2024-01-16T04:43:06;5.22;;;0.80;;
53253;SDS011;75200;53.048;7.552;2024-01-16T04:45:32;8.07;;;1.60;;
53253;SDS011;75200;53.048;7.552;2024-01-16T04:47:58;10.05;;;0.63;;
53253;SDS011;75200;53.048;7.552;2024-01-16T04:50:24;7.97;;;1.45;;
53253;SDS011;75200;53.048;7.552;2024-01-16T04:52:56;11.68;;;1.42;;
53253;SDS011;75200;53.048;7.552;2024-01-16T04:55:23;9.38;;;0.90;;
53253;SDS011;75200;53.048;7.552;2024-01-16T04:57:49;11.80;;;1.13;;
53253;SDS011;75200;53.048;7.552;2024-01-16T05:00:15;7.00;;;1.70;;
53253;SDS011;75200;53.048;7.552;2024-01-16T05:02:41;10.10;;;0.90;;
53253;SDS011;75200;53.048;7.552;2024-01-16T05:05:07;7.43;;;0.80;;
53253;SDS011;75200;53.048;7.552;2024-01-16T05:07:34;8.60;;;1.27;;
53253;SDS011;75200;53.048;7.552;2024-01-16T05:10:01;9.93;;;0.80;;
53253;SDS011;75200;53.048;7.552;2024-01-16T05:12:27;6.88;;;1.02;;
53253;SDS011;75200;53.048;7.552;2024-01-16T05:14:53;6.47;;;1.15;;
53253;SDS011;75200;53.048;7.552;2024-01-16T05:17:19;10.77;;;0.55;;
53253;SDS011;75200;53.048;7.552;2024-01-16T05:19:45;9.48;;;0.88;;
53253;SDS011;75200;53.048;7.552;2024-01-16T05:22:11;5.10;;;0.52;;
53253;SDS011;75200;53.048;7.552;2024-01-16T05:24:38;9.43;;;0.98;;
53253;SDS011;75200;53.048;7.552;2024-01-16T05:27:04;7.00;;;0.65;;
53253;SDS011;75200;53.048;7.552;2024-01-16T05:29:30;10.57;;;0.98;;
53253;SDS011;75200;53.048;7.552;2024-01-16T05:31:56;12.07;;;0.88;;
53253;SDS011;75200;53.048;7.552;2024-01-16T05:34:23;6.43;;;0.80;;
53253;SDS011;75200;53.048;7.552;2024-01-16T05:36:49;6.82;;;0.80;;
53253;SDS011;75200;53.048;7.552;2024-01-16T05:39:15;8.68;;;0.85;;
53253;SDS011;75200;53.048;7.552;2024-01-16T05:41:42;7.05;;;0.63;;
53253;SDS011;75200;53.048;7.552;2024-01-16T05:44:08;5.50;;;1.00;;
53253;SDS011;75200;53.048;7.552;2024-01-16T05:46:34;6.03;;;0.93;;
53253;SDS011;75200;53.048;7.552;2024-01-16T05:49:00;5.32;;;0.75;;
53253;SDS011;75200;53.048;7.552;2024-01-16T05:51:27;9.98;;;0.95;;
53253;SDS011;75200;53.048;7.552;2024-01-16T05:53:54;8.48;;;1.30;;
53253;SDS011;75200;53.048;7.552;2024-01-16T05:56:20;6.10;;;0.80;;
53253;SDS011;75200;53.048;7.552;2024-01-16T05:58:46;8.23;;;0.90;;
53253;SDS011;75200;53.048;7.552;2024-01-16T06:01:12;10.30;;;0.90;;
53253;SDS011;75200;53.048;7.552;2024-01-16T06:03:39;6.13;;;0.70;;
53253;SDS011;75200;53.048;7.552;2024-01-16T06:06:05;12.82;;;1.00;;
53253;SDS011;75200;53.048;7.552;2024-01-16T06:08:32;6.40;;;0.90;;
53253;SDS011;75200;53.048;7.552;2024-01-16T06:10:58;13.88;;;1.25;;
53253;SDS011;75200;53.048;7.552;2024-01-16T06:13:25;7.78;;;0.75;;
53253;SDS011;75200;53.048;7.552;2024-01-16T06:15:51;5.50;;;0.50;;
53253;SDS011;75200;53.048;7.552;2024-01-16T06:18:17;12.70;;;1.10;;
53253;SDS011;75200;53.048;7.552;2024-01-16T06:20:43;6.10;;;0.75;;
53253;SDS011;75200;53.048;7.552;2024-01-16T06:23:09;9.75;;;1.05;;
53253;SDS011;75200;53.048;7.552;2024-01-16T06:25:35;6.43;;;1.25;;
53253;SDS011;75200;53.048;7.552;2024-01-16T06:28:02;7.28;;;0.93;;
53253;SDS011;75200;53.048;7.552;2024-01-16T06:30:30;8.20;;;0.90;;
53253;SDS011;75200;53.048;7.552;2024-01-16T06:32:56;6.38;;;0.90;;
53253;SDS011;75200;53.048;7.552;2024-01-16T06:35:22;8.65;;;1.05;;
53253;SDS011;75200;53.048;7.552;2024-01-16T06:37:49;12.85;;;1.10;;
53253;SDS011;75200;53.048;7.552;2024-01-16T06:40:15;6.57;;;1.23;;
53253;SDS011;75200;53.048;7.552;2024-01-16T06:42:41;8.93;;;1.35;;
53253;SDS011;75200;53.048;7.552;2024-01-16T06:45:07;8.00;;;1.15;;
53253;SDS011;75200;53.048;7.552;2024-01-16T06:47:33;5.20;;;0.70;;
53253;SDS011;75200;53.048;7.552;2024-01-16T06:49:59;11.07;;;1.40;;
53253;SDS011;75200;53.048;7.552;2024-01-16T06:52:25;11.20;;;1.58;;
53253;SDS011;75200;53.048;7.552;2024-01-16T06:54:51;10.60;;;1.25;;
53253;SDS011;75200;53.048;7.552;2024-01-16T06:57:18;10.02;;;1.92;;
53253;SDS011;75200;53.048;7.552;2024-01-16T06:59:44;10.10;;;1.50;;
53253;SDS011;75200;53.048;7.552;2024-01-16T07:02:10;13.15;;;1.08;;
53253;SDS011;75200;53.048;7.552;2024-01-16T07:04:36;8.95;;;1.17;;
53253;SDS011;75200;53.048;7.552;2024-01-16T07:07:02;12.32;;;1.38;;
53253;SDS011;75200;53.048;7.552;2024-01-16T07:09:28;9.90;;;1.60;;
53253;SDS011;75200;53.048;7.552;2024-01-16T07:11:54;6.80;;;1.45;;
53253;SDS011;75200;53.048;7.552;2024-01-16T07:14:21;7.80;;;1.38;;
53253;SDS011;75200;53.048;7.552;2024-01-16T07:16:47;14.40;;;1.45;;
53253;SDS011;75200;53.048;7.552;2024-01-16T07:19:13;8.98;;;1.10;;
53253;SDS011;75200;53.048;7.552;2024-01-16T07:21:39;6.50;;;0.93;;
53253;SDS011;75200;53.048;7.552;2024-01-16T07:24:05;7.57;;;0.98;;
53253;SDS011;75200;53.048;7.552;2024-01-16T07:26:31;11.38;;;1.08;;
53253;SDS011;75200;53.048;7.552;2024-01-16T07:28:57;13.27;;;1.40;;
53253;SDS011;75200;53.048;7.552;2024-01-16T07:31:23;7.72;;;0.93;;
53253;SDS011;75200;53.048;7.552;2024-01-16T07:33:50;6.18;;;0.82;;
53253;SDS011;75200;53.048;7.552;2024-01-16T07:36:16;9.18;;;1.33;;
53253;SDS011;75200;53.048;7.552;2024-01-16T07:38:42;9.10;;;1.20;;
53253;SDS011;75200;53.048;7.552;2024-01-16T07:41:08;10.13;;;1.65;;
53253;SDS011;75200;53.048;7.552;2024-01-16T07:43:34;10.80;;;1.00;;
53253;SDS011;75200;53.048;7.552;2024-01-16T07:46:01;7.88;;;1.10;;
53253;SDS011;75200;53.048;7.552;2024-01-16T07:48:28;6.30;;;1.55;;
53253;SDS011;75200;53.048;7.552;2024-01-16T07:50:54;9.38;;;1.35;;
53253;SDS011;75200;53.048;7.552;2024-01-16T07:53:20;7.47;;;1.10;;
53253;SDS011;75200;53.048;7.552;2024-01-16T07:55:47;8.65;;;1.25;;
53253;SDS011;75200;53.048;7.552;2024-01-16T07:58:13;12.10;;;2.03;;
53253;SDS011;75200;53.048;7.552;2024-01-16T08:00:39;11.63;;;1.27;;
53253;SDS011;75200;53.048;7.552;2024-01-16T08:03:09;6.47;;;1.20;;
53253;SDS011;75200;53.048;7.552;2024-01-16T08:05:36;5.35;;;1.30;;
53253;SDS011;75200;53.048;7.552;2024-01-16T08:08:03;9.63;;;1.42;;
53253;SDS011;75200;53.048;7.552;2024-01-16T08:10:29;12.15;;;1.63;;
53253;SDS011;75200;53.048;7.552;2024-01-16T08:12:56;10.65;;;1.77;;
53253;SDS011;75200;53.048;7.552;2024-01-16T08:15:22;7.57;;;1.83;;
53253;SDS011;75200;53.048;7.552;2024-01-16T08:17:48;11.52;;;1.67;;
53253;SDS011;75200;53.048;7.552;2024-01-16T08:20:14;10.15;;;1.90;;
53253;SDS011;75200;53.048;7.552;2024-01-16T08:22:41;8.45;;;2.33;;
53253;SDS011;75200;53.048;7.552;2024-01-16T08:25:07;13.20;;;2.05;;
53253;SDS011;75200;53.048;7.552;2024-01-16T08:27:33;7.70;;;2.38;;
53253;SDS011;75200;53.048;7.552;2024-01-16T08:30:02;8.80;;;2.17;;
53253;SDS011;75200;53.048;7.552;2024-01-16T08:32:28;9.75;;;2.88;;
53253;SDS011;75200;53.048;7.552;2024-01-16T08:34:56;13.80;;;2.17;;
53253;SDS011;75200;53.048;7.552;2024-01-16T08:37:22;7.60;;;2.10;;
53253;SDS011;75200;53.048;7.552;2024-01-16T08:39:50;8.32;;;1.77;;
53253;SDS011;75200;53.048;7.552;2024-01-16T08:42:16;8.32;;;2.28;;
53253;SDS011;75200;53.048;7.552;2024-01-16T08:44:43;9.52;;;2.10;;
53253;SDS011;75200;53.048;7.552;2024-01-16T08:47:09;9.38;;;3.30;;
53253;SDS011;75200;53.048;7.552;2024-01-16T08:49:35;8.35;;;2.10;;
53253;SDS011;75200;53.048;7.552;2024-01-16T08:52:03;14.30;;;2.65;;
53253;SDS011;75200;53.048;7.552;2024-01-16T08:54:30;7.22;;;2.30;;
53253;SDS011;75200;53.048;7.552;2024-01-16T08:56:56;10.30;;;2.83;;
53253;SDS011;75200;53.048;7.552;2024-01-16T08:59:23;11.90;;;2.42;;
53253;SDS011;75200;53.048;7.552;2024-01-16T09:01:49;14.20;;;3.05;;
53253;SDS011;75200;53.048;7.552;2024-01-16T09:04:16;8.90;;;2.50;;
53253;SDS011;75200;53.048;7.552;2024-01-16T09:06:43;3.40;;;1.25;;
53253;SDS011;75200;53.048;7.552;2024-01-16T09:09:09;12.07;;;3.25;;
53253;SDS011;75200;53.048;7.552;2024-01-16T09:11:35;10.02;;;3.35;;
53253;SDS011;75200;53.048;7.552;2024-01-16T09:14:01;8.82;;;2.63;;
53253;SDS011;75200;53.048;7.552;2024-01-16T09:16:27;8.02;;;2.38;;
53253;SDS011;75200;53.048;7.552;2024-01-16T09:18:53;14.32;;;3.30;;
53253;SDS011;75200;53.048;7.552;2024-01-16T09:21:20;12.57;;;3.83;;
53253;SDS011;75200;53.048;7.552;2024-01-16T09:23:46;12.18;;;3.38;;
53253;SDS011;75200;53.048;7.552;2024-01-16T09:26:12;13.90;;;4.65;;
53253;SDS011;75200;53.048;7.552;2024-01-16T09:28:38;14.88;;;4.50;;
53253;SDS011;75200;53.048;7.552;2024-01-16T09:31:08;9.80;;;3.17;;
53253;SDS011;75200;53.048;7.552;2024-01-16T09:33:34;9.13;;;3.10;;
53253;SDS011;75200;53.048;7.552;2024-01-16T09:36:00;11.48;;;3.30;;
53253;SDS011;75200;53.048;7.552;2024-01-16T09:38:26;12.93;;;3.85;;
53253;SDS011;75200;53.048;7.552;2024-01-16T09:40:53;11.05;;;3.40;;
53253;SDS011;75200;53.048;7.552;2024-01-16T09:43:23;9.88;;;2.72;;
53253;SDS011;75200;53.048;7.552;2024-01-16T09:45:51;10.82;;;3.35;;
53253;SDS011;75200;53.048;7.552;2024-01-16T09:48:18;8.25;;;3.47;;
53253;SDS011;75200;53.048;7.552;2024-01-16T09:50:44;8.52;;;3.13;;
53253;SDS011;75200;53.048;7.552;2024-01-16T09:53:11;11.57;;;3.65;;
53253;SDS011;75200;53.048;7.552;2024-01-16T09:55:37;11.10;;;4.85;;
53253;SDS011;75200;53.048;7.552;2024-01-16T09:58:03;10.02;;;3.88;;
53253;SDS011;75200;53.048;7.552;2024-01-16T10:00:31;9.38;;;3.83;;
53253;SDS011;75200;53.048;7.552;2024-01-16T10:02:58;11.48;;;4.03;;
53253;SDS011;75200;53.048;7.552;2024-01-16T10:05:25;11.10;;;4.13;;
53253;SDS011;75200;53.048;7.552;2024-01-16T10:07:51;10.23;;;3.15;;
53253;SDS011;75200;53.048;7.552;2024-01-16T10:10:17;11.15;;;4.45;;
53253;SDS011;75200;53.048;7.552;2024-01-16T10:12:45;11.90;;;4.13;;
53253;SDS011;75200;53.048;7.552;2024-01-16T10:15:12;9.10;;;3.60;;
53253;SDS011;75200;53.048;7.552;2024-01-16T10:17:43;7.35;;;3.70;;
53253;SDS011;75200;53.048;7.552;2024-01-16T10:20:10;12.85;;;3.70;;
53253;SDS011;75200;53.048;7.552;2024-01-16T10:22:42;9.20;;;3.55;;
53253;SDS011;75200;53.048;7.552;2024-01-16T10:25:17;11.30;;;3.03;;
53253;SDS011;75200;53.048;7.552;2024-01-16T10:27:45;10.98;;;3.80;;
53253;SDS011;75200;53.048;7.552;2024-01-16T10:30:11;11.13;;;4.65;;
53253;SDS011;75200;53.048;7.552;2024-01-16T10:32:41;4.90;;;2.15;;
53253;SDS011;75200;53.048;7.552;2024-01-16T10:35:08;10.43;;;3.60;;
53253;SDS011;75200;53.048;7.552;2024-01-16T10:40:14;8.82;;;3.08;;
53253;SDS011;75200;53.048;7.552;2024-01-16T10:42:41;11.23;;;4.13;;
53253;SDS011;75200;53.048;7.552;2024-01-16T10:45:08;8.10;;;2.90;;
53253;SDS011;75200;53.048;7.552;2024-01-16T10:47:47;12.02;;;3.75;;
53253;SDS011;75200;53.048;7.552;2024-01-16T10:50:14;13.02;;;3.97;;
53253;SDS011;75200;53.048;7.552;2024-01-16T10:52:49;7.28;;;3.15;;
53253;SDS011;75200;53.048;7.552;2024-01-16T10:55:21;9.45;;;3.63;;
53253;SDS011;75200;53.048;7.552;2024-01-16T10:57:51;8.98;;;4.25;;
53253;SDS011;75200;53.048;7.552;2024-01-16T11:00:18;9.18;;;3.88;;
53253;SDS011;75200;53.048;7.552;2024-01-16T11:02:58;8.95;;;3.92;;
53253;SDS011;75200;53.048;7.552;2024-01-16T11:05:25;6.90;;;3.17;;
53253;SDS011;75200;53.048;7.552;2024-01-16T11:07:55;10.23;;;3.97;;
53253;SDS011;75200;53.048;7.552;2024-01-16T11:10:21;7.75;;;4.45;;
53253;SDS011;75200;53.048;7.552;2024-01-16T11:12:49;12.93;;;4.18;;
53253;SDS011;75200;53.048;7.552;2024-01-16T11:15:17;8.18;;;4.40;;
53253;SDS011;75200;53.048;7.552;2024-01-16T11:17:44;9.07;;;4.25;;
53253;SDS011;75200;53.048;7.552;2024-01-16T11:20:11;9.05;;;5.40;;
53253;SDS011;75200;53.048;7.552;2024-01-16T11:22:39;8.63;;;3.70;;
53253;SDS011;75200;53.048;7.552;2024-01-16T11:27:40;11.30;;;4.88;;
53253;SDS011;75200;53.048;7.552;2024-01-16T11:30:10;8.82;;;4.18;;
53253;SDS011;75200;53.048;7.552;2024-01-16T11:35:08;8.75;;;4.28;;
53253;SDS011;75200;53.048;7.552;2024-01-16T11:37:36;11.63;;;4.35;;
53253;SDS011;75200;53.048;7.552;2024-01-16T11:42:50;12.50;;;4.43;;
53253;SDS011;75200;53.048;7.552;2024-01-16T11:48:11;11.90;;;4.90;;
53253;SDS011;75200;53.048;7.552;2024-01-16T11:50:37;11.95;;;5.55;;
53253;SDS011;75200;53.048;7.552;2024-01-16T11:53:04;14.23;;;4.70;;
53253;SDS011;75200;53.048;7.552;2024-01-16T11:55:34;9.27;;;4.32;;
53253;SDS011;75200;53.048;7.552;2024-01-16T12:00:30;10.50;;;4.25;;
53253;SDS011;75200;53.048;7.552;2024-01-16T12:02:58;7.82;;;3.35;;
53253;SDS011;75200;53.048;7.552;2024-01-16T12:05:28;9.00;;;4.50;;
53253;SDS011;75200;53.048;7.552;2024-01-16T12:07:54;7.95;;;4.03;;
53253;SDS011;75200;53.048;7.552;2024-01-16T12:10:24;8.65;;;3.92;;
53253;SDS011;75200;53.048;7.552;2024-01-16T12:12:50;7.05;;;2.80;;
53253;SDS011;75200;53.048;7.552;2024-01-16T12:15:21;9.55;;;3.63;;
53253;SDS011;75200;53.048;7.552;2024-01-16T12:17:54;12.43;;;4.50;;
53253;SDS011;75200;53.048;7.552;2024-01-16T12:20:21;10.38;;;3.03;;
53253;SDS011;75200;53.048;7.552;2024-01-16T12:23:03;8.15;;;3.22;;
53253;SDS011;75200;53.048;7.552;2024-01-16T12:25:31;7.25;;;3.17;;
53253;SDS011;75200;53.048;7.552;2024-01-16T12:27:58;8.48;;;3.53;;
53253;SDS011;75200;53.048;7.552;2024-01-16T12:30:28;6.25;;;3.17;;
53253;SDS011;75200;53.048;7.552;2024-01-16T12:33:08;11.23;;;3.53;;
53253;SDS011;75200;53.048;7.552;2024-01-16T12:35:42;11.02;;;3.58;;
53253;SDS011;75200;53.048;7.552;2024-01-16T12:38:12;8.05;;;2.83;;
53253;SDS011;75200;53.048;7.552;2024-01-16T12:40:42;6.85;;;1.85;;
53253;SDS011;75200;53.048;7.552;2024-01-16T12:43:10;5.65;;;1.98;;
53253;SDS011;75200;53.048;7.552;2024-01-16T12:45:36;11.70;;;3.38;;
53253;SDS011;75200;53.048;7.552;2024-01-16T12:48:03;6.50;;;2.00;;
53253;SDS011;75200;53.048;7.552;2024-01-16T12:50:30;5.80;;;1.90;;
53253;SDS011;75200;53.048;7.552;2024-01-16T12:53:06;8.15;;;3.10;;
53253;SDS011;75200;53.048;7.552;2024-01-16T12:55:34;5.32;;;1.58;;
53253;SDS011;75200;53.048;7.552;2024-01-16T12:58:13;8.05;;;2.38;;
53253;SDS011;75200;53.048;7.552;2024-01-16T13:00:39;7.80;;;1.85;;
53253;SDS011;75200;53.048;7.552;2024-01-16T13:03:06;6.30;;;1.80;;
53253;SDS011;75200;53.048;7.552;2024-01-16T13:05:32;11.88;;;1.65;;
53253;SDS011;75200;53.048;7.552;2024-01-16T13:08:04;9.45;;;1.63;;
53253;SDS011;75200;53.048;7.552;2024-01-16T13:10:31;10.30;;;1.80;;
53253;SDS011;75200;53.048;7.552;2024-01-16T13:13:16;6.03;;;1.23;;
53253;SDS011;75200;53.048;7.552;2024-01-16T13:15:43;10.40;;;1.30;;
53253;SDS011;75200;53.048;7.552;2024-01-16T13:20:45;5.45;;;1.40;;
53253;SDS011;75200;53.048;7.552;2024-01-16T13:23:14;10.30;;;1.38;;
53253;SDS011;75200;53.048;7.552;2024-01-16T13:25:43;9.98;;;1.50;;
53253;SDS011;75200;53.048;7.552;2024-01-16T13:28:14;7.93;;;1.92;;
53253;SDS011;75200;53.048;7.552;2024-01-16T13:30:40;8.00;;;1.65;;
53253;SDS011;75200;53.048;7.552;2024-01-16T13:33:09;3.95;;;1.50;;
53253;SDS011;75200;53.048;7.552;2024-01-16T13:35:39;8.63;;;2.33;;
53253;SDS011;75200;53.048;7.552;2024-01-16T13:38:06;5.78;;;1.27;;
53253;SDS011;75200;53.048;7.552;2024-01-16T13:40:33;8.98;;;1.80;;
53253;SDS011;75200;53.048;7.552;2024-01-16T13:42:59;6.60;;;1.88;;
53253;SDS011;75200;53.048;7.552;2024-01-16T13:45:26;9.10;;;2.10;;
53253;SDS011;75200;53.048;7.552;2024-01-16T13:47:53;8.52;;;2.05;;
53253;SDS011;75200;53.048;7.552;2024-01-16T13:50:20;5.88;;;2.38;;
53253;SDS011;75200;53.048;7.552;2024-01-16T13:52:46;7.85;;;2.53;;
53253;SDS011;75200;53.048;7.552;2024-01-16T13:55:12;10.50;;;2.70;;
53253;SDS011;75200;53.048;7.552;2024-01-16T13:57:38;8.00;;;3.10;;
53253;SDS011;75200;53.048;7.552;2024-01-16T14:00:05;9.90;;;3.30;;
53253;SDS011;75200;53.048;7.552;2024-01-16T14:02:33;10.77;;;3.47;;
53253;SDS011;75200;53.048;7.552;2024-01-16T14:05:07;12.25;;;4.03;;
53253;SDS011;75200;53.048;7.552;2024-01-16T14:07:36;11.25;;;4.20;;
53253;SDS011;75200;53.048;7.552;2024-01-16T14:10:05;9.70;;;4.25;;
53253;SDS011;75200;53.048;7.552;2024-01-16T14:12:32;9.75;;;5.30;;
53253;SDS011;75200;53.048;7.552;2024-01-16T14:14:58;13.43;;;4.63;;
53253;SDS011;75200;53.048;7.552;2024-01-16T14:17:25;7.35;;;4.53;;
53253;SDS011;75200;53.048;7.552;2024-01-16T14:19:51;10.68;;;4.65;;
53253;SDS011;75200;53.048;7.552;2024-01-16T14:22:18;13.35;;;5.88;;
53253;SDS011;75200;53.048;7.552;2024-01-16T14:24:44;12.85;;;6.18;;
53253;SDS011;75200;53.048;7.552;2024-01-16T14:27:13;12.98;;;6.05;;
53253;SDS011;75200;53.048;7.552;2024-01-16T14:29:39;18.85;;;7.30;;
53253;SDS011;75200;53.048;7.552;2024-01-16T14:32:05;11.25;;;5.38;;
53253;SDS011;75200;53.048;7.552;2024-01-16T14:34:31;14.60;;;6.15;;
53253;SDS011;75200;53.048;7.552;2024-01-16T14:36:57;16.23;;;6.15;;
53253;SDS011;75200;53.048;7.552;2024-01-16T14:39:23;11.13;;;5.63;;
53253;SDS011;75200;53.048;7.552;2024-01-16T14:41:56;10.55;;;4.18;;
53253;SDS011;75200;53.048;7.552;2024-01-16T14:44:25;13.73;;;6.07;;
53253;SDS011;75200;53.048;7.552;2024-01-16T14:46:51;13.10;;;5.38;;
53253;SDS011;75200;53.048;7.552;2024-01-16T14:49:19;8.75;;;4.97;;
53253;SDS011;75200;53.048;7.552;2024-01-16T14:51:48;15.95;;;5.65;;
53253;SDS011;75200;53.048;7.552;2024-01-16T14:54:15;35.30;;;7.13;;
53253;SDS011;75200;53.048;7.552;2024-01-16T14:56:41;14.00;;;5.90;;
53253;SDS011;75200;53.048;7.552;2024-01-16T14:59:07;8.55;;;4.40;;
53253;SDS011;75200;53.048;7.552;2024-01-16T15:01:34;13.38;;;5.13;;
53253;SDS011;75200;53.048;7.552;2024-01-16T15:04:00;12.40;;;5.40;;